createdAt,value
2019-04-11T00:00:50.463Z,12.40
2019-04-11T00:02:55.268Z,12.25
2019-04-11T00:04:59.165Z,11.55
2019-04-11T00:07:03.724Z,12.35
2019-04-11T00:09:10.268Z,11.97
2019-04-11T00:11:14.455Z,11.90
2019-04-11T00:13:23.834Z,10.80
2019-04-11T00:15:24.496Z,11.05
2019-04-11T00:17:28.443Z,11.75
2019-04-11T00:19:33.567Z,11.80
2019-04-11T00:21:38.071Z,12.70
2019-04-11T00:23:43.046Z,11.73
2019-04-11T00:25:47.611Z,12.00
2019-04-11T00:27:51.454Z,11.65
2019-04-11T00:29:55.509Z,11.33
2019-04-11T00:31:59.510Z,11.97
2019-04-11T00:34:03.367Z,11.53
2019-04-11T00:36:08.233Z,11.60
2019-04-11T00:38:12.293Z,11.80
2019-04-11T00:40:17.309Z,10.95
2019-04-11T00:42:22.778Z,11.53
2019-04-11T00:44:27.206Z,11.65
2019-04-11T00:46:32.053Z,11.43
2019-04-11T00:48:36.012Z,11.35
2019-04-11T00:50:39.882Z,11.63
2019-04-11T00:52:43.758Z,11.30
2019-04-11T00:54:47.628Z,11.80
2019-04-11T00:56:52.560Z,11.18
2019-04-11T00:58:56.517Z,11.25
2019-04-11T01:03:53.711Z,11.12
2019-04-11T01:05:58.285Z,10.98
2019-04-11T01:08:03.083Z,11.10
2019-04-11T01:10:10.092Z,11.65
2019-04-11T01:12:14.610Z,12.07
2019-04-11T01:14:18.524Z,11.12
2019-04-11T01:16:23.980Z,11.65
2019-04-11T01:18:27.909Z,11.15
2019-04-11T01:20:31.784Z,10.80
2019-04-11T01:22:35.651Z,10.88
2019-04-11T01:24:39.892Z,11.73
2019-04-11T01:26:44.139Z,10.58
2019-04-11T01:28:48.872Z,10.32
2019-04-11T01:31:01.340Z,11.70
2019-04-11T01:33:05.256Z,10.95
2019-04-11T01:35:09.184Z,11.35
2019-04-11T01:37:13.109Z,11.10
2019-04-11T01:39:37.131Z,11.50
2019-04-11T01:41:42.632Z,11.03
2019-04-11T01:43:54.284Z,11.43
2019-04-11T01:45:52.348Z,11.90
2019-04-11T01:48:15.289Z,10.98
2019-04-11T01:50:20.985Z,11.38
2019-04-11T01:52:24.897Z,11.80
2019-04-11T01:54:29.937Z,11.75
2019-04-11T01:56:34.000Z,11.88
2019-04-11T01:58:38.507Z,12.10
2019-04-11T02:00:53.096Z,12.18
2019-04-11T02:02:59.220Z,12.00
2019-04-11T02:05:08.273Z,12.85
2019-04-11T02:07:12.328Z,12.75
2019-04-11T02:09:16.194Z,13.35
2019-04-11T02:11:20.085Z,12.10
2019-04-11T02:13:23.945Z,13.20
2019-04-11T02:15:28.370Z,12.50
2019-04-11T02:17:32.850Z,12.47
2019-04-11T02:19:36.930Z,13.62
2019-04-11T02:21:42.015Z,15.15
2019-04-11T02:23:51.114Z,14.70
2019-04-11T02:25:56.750Z,14.53
2019-04-11T02:28:02.479Z,15.85
2019-04-11T02:30:08.836Z,15.80
2019-04-11T02:32:13.863Z,16.00
2019-04-11T02:34:19.268Z,16.35
2019-04-11T02:36:24.825Z,16.40
2019-04-11T02:38:30.375Z,17.30
2019-04-11T02:40:34.445Z,17.35
2019-04-11T02:42:38.949Z,17.12
2019-04-11T02:44:59.879Z,17.00
2019-04-11T02:47:00.231Z,17.30
2019-04-11T02:48:56.625Z,17.05
2019-04-11T02:51:00.997Z,17.50
2019-04-11T02:53:07.214Z,17.87
2019-04-11T02:55:13.024Z,16.27
2019-04-11T02:57:18.322Z,17.27
2019-04-11T02:59:22.699Z,17.07
2019-04-11T03:01:28.288Z,16.40
2019-04-11T03:03:34.010Z,16.27
2019-04-11T03:05:39.379Z,16.82
2019-04-11T03:07:43.663Z,17.52
2019-04-11T03:09:48.882Z,17.87
2019-04-11T03:11:54.763Z,16.75
2019-04-11T03:14:01.260Z,16.80
2019-04-11T03:16:17.207Z,16.32
2019-04-11T03:18:14.204Z,17.12
2019-04-11T03:20:26.682Z,16.48
2019-04-11T03:22:22.590Z,16.02
2019-04-11T03:24:28.838Z,16.97
2019-04-11T03:26:33.617Z,17.07
2019-04-11T03:28:40.539Z,16.85
2019-04-11T03:31:03.957Z,16.73
2019-04-11T03:33:50.186Z,17.32
2019-04-11T03:36:01.152Z,16.95
2019-04-11T03:37:23.694Z,18.67
2019-04-11T03:39:28.198Z,17.73
2019-04-11T03:41:26.701Z,17.80
2019-04-11T03:43:30.184Z,17.32
2019-04-11T03:45:44.190Z,16.55
2019-04-11T03:47:40.922Z,16.80
2019-04-11T03:49:44.829Z,16.90
2019-04-11T03:51:43.615Z,18.75
2019-04-11T03:53:49.047Z,18.17
2019-04-11T03:55:53.816Z,18.05
2019-04-11T03:57:59.173Z,18.27
2019-04-11T04:00:06.314Z,18.07
2019-04-11T04:02:12.464Z,17.20
2019-04-11T04:04:19.297Z,17.90
2019-04-11T04:06:23.333Z,18.00
2019-04-11T04:08:29.184Z,18.70
2019-04-11T04:10:36.175Z,18.07
2019-04-11T04:12:40.490Z,17.50
2019-04-11T04:14:55.015Z,18.42
2019-04-11T04:17:11.100Z,17.55
2019-04-11T04:19:35.092Z,18.52
2019-04-11T04:21:57.547Z,18.25
2019-04-11T04:24:03.965Z,17.37
2019-04-11T04:26:10.552Z,16.95
2019-04-11T04:28:14.226Z,17.17
2019-04-11T04:30:20.374Z,16.82
2019-04-11T04:32:25.184Z,17.12
2019-04-11T04:34:29.255Z,16.48
2019-04-11T04:36:34.689Z,16.40
2019-04-11T04:38:41.235Z,16.02
2019-04-11T04:41:00.371Z,16.32
2019-04-11T04:42:56.150Z,16.52
2019-04-11T04:44:59.717Z,17.07
2019-04-11T04:47:13.612Z,16.32
2019-04-11T04:49:09.773Z,16.42
2019-04-11T04:51:16.315Z,15.75
2019-04-11T04:53:22.087Z,16.45
2019-04-11T04:55:27.722Z,15.75
2019-04-11T04:57:33.284Z,17.05
2019-04-11T04:59:38.389Z,15.65
2019-04-11T05:01:44.262Z,15.78
2019-04-11T05:03:48.845Z,15.95
2019-04-11T05:05:55.327Z,16.27
2019-04-11T05:08:00.681Z,16.40
2019-04-11T05:10:08.579Z,16.50
2019-04-11T05:12:11.980Z,16.93
2019-04-11T05:14:16.363Z,18.87
2019-04-11T05:16:20.438Z,20.30
2019-04-11T05:18:24.350Z,23.05
2019-04-11T05:20:28.252Z,24.43
2019-04-11T05:22:33.115Z,20.97
2019-04-11T05:24:37.117Z,19.17
2019-04-11T05:26:41.794Z,18.77
2019-04-11T05:28:45.812Z,17.60
2019-04-11T05:30:49.793Z,18.52
2019-04-11T05:32:53.651Z,18.42
2019-04-11T05:34:58.530Z,18.37
2019-04-11T05:37:02.442Z,18.32
2019-04-11T05:39:08.766Z,17.45
2019-04-11T05:41:13.855Z,18.17
2019-04-11T05:43:17.915Z,18.35
2019-04-11T05:45:24.425Z,17.20
2019-04-11T05:47:27.613Z,18.65
2019-04-11T05:49:36.766Z,18.95
2019-04-11T05:51:41.622Z,19.02
2019-04-11T05:53:44.279Z,18.82
2019-04-11T05:55:48.845Z,18.87
2019-04-11T05:57:52.716Z,18.48
2019-04-11T05:59:57.672Z,19.23
2019-04-11T06:02:07.702Z,19.37
2019-04-11T06:04:20.560Z,19.05
2019-04-11T06:06:40.214Z,18.75
2019-04-11T06:08:44.220Z,18.98
2019-04-11T06:10:50.470Z,18.77
2019-04-11T06:13:14.346Z,19.52
2019-04-11T06:15:22.995Z,17.57
2019-04-11T06:17:27.033Z,18.50
2019-04-11T06:19:39.698Z,17.00
2019-04-11T06:21:48.463Z,16.73
2019-04-11T06:24:10.558Z,17.23
2019-04-11T06:26:32.328Z,16.52
2019-04-11T06:28:38.038Z,16.95
2019-04-11T06:30:50.698Z,18.32
2019-04-11T06:33:12.237Z,17.45
2019-04-11T06:35:34.397Z,16.55
2019-04-11T06:37:39.872Z,19.12
2019-04-11T06:39:48.032Z,19.20
2019-04-11T06:42:05.999Z,17.25
2019-04-11T06:44:21.614Z,15.78
2019-04-11T06:46:31.323Z,15.68
2019-04-11T06:48:49.629Z,16.48
2019-04-11T06:50:58.253Z,16.87
2019-04-11T06:53:23.806Z,15.53
2019-04-11T06:55:44.762Z,15.98
2019-04-11T06:57:50.227Z,15.40
2019-04-11T06:59:54.060Z,14.90
2019-04-11T07:02:08.783Z,14.85
2019-04-11T07:04:06.851Z,15.72
2019-04-11T07:06:13.292Z,15.83
2019-04-11T07:08:18.887Z,14.68
2019-04-11T07:10:24.568Z,14.98
2019-04-11T07:12:42.781Z,14.38
2019-04-11T07:14:48.607Z,15.48
2019-04-11T07:17:11.056Z,14.05
2019-04-11T07:19:26.519Z,14.83
2019-04-11T07:21:33.068Z,14.15
2019-04-11T07:23:55.542Z,14.75
2019-04-11T07:26:02.450Z,14.15
2019-04-11T07:28:09.938Z,15.60
2019-04-11T07:30:19.250Z,13.68
2019-04-11T07:32:23.323Z,13.98
2019-04-11T07:34:45.745Z,14.50
2019-04-11T07:37:07.741Z,14.87
2019-04-11T07:39:14.532Z,15.53
2019-04-11T07:41:39.232Z,14.55
2019-04-11T07:43:43.822Z,14.40
2019-04-11T07:45:49.433Z,13.25
2019-04-11T07:48:13.342Z,15.15
2019-04-11T07:50:18.751Z,13.68
2019-04-11T07:52:22.943Z,14.35
2019-04-11T07:54:28.007Z,14.53
2019-04-11T07:56:50.704Z,14.75
2019-04-11T07:58:56.469Z,15.40
2019-04-11T08:01:08.354Z,14.55
2019-04-11T08:03:16.983Z,14.70
2019-04-11T08:05:38.965Z,14.55
2019-04-11T08:07:51.364Z,14.73
2019-04-11T08:10:13.241Z,13.75
2019-04-11T08:12:23.460Z,13.75
2019-04-11T08:14:42.436Z,13.78
2019-04-11T08:16:59.945Z,14.15
2019-04-11T08:19:21.052Z,13.30
2019-04-11T08:21:38.941Z,12.58
2019-04-11T08:23:45.635Z,13.50
2019-04-11T08:26:00.313Z,13.88
2019-04-11T08:28:07.908Z,13.58
2019-04-11T08:30:14.918Z,14.18
2019-04-11T08:32:30.068Z,12.35
2019-04-11T08:34:35.678Z,13.55
2019-04-11T08:36:48.919Z,13.18
2019-04-11T08:38:53.403Z,13.78
2019-04-11T08:41:02.985Z,13.78
2019-04-11T08:43:11.584Z,13.80
2019-04-11T08:45:17.511Z,13.40
2019-04-11T08:47:22.525Z,13.68
2019-04-11T08:49:32.058Z,13.70
2019-04-11T08:51:36.763Z,13.20
2019-04-11T08:53:45.399Z,12.73
2019-04-11T08:56:02.174Z,14.43
2019-04-11T08:58:08.560Z,13.88
2019-04-11T09:00:33.111Z,14.33
2019-04-11T09:02:38.144Z,14.45
2019-04-11T09:05:07.020Z,13.50
2019-04-11T09:07:07.700Z,13.58
2019-04-11T09:09:13.344Z,13.85
2019-04-11T09:11:18.911Z,13.60
2019-04-11T09:13:37.727Z,13.20
2019-04-11T09:15:59.882Z,13.88
2019-04-11T09:18:08.802Z,14.53
2019-04-11T09:20:29.654Z,14.63
2019-04-11T09:22:39.438Z,13.80
2019-04-11T09:24:48.447Z,14.83
2019-04-11T09:27:10.664Z,13.93
2019-04-11T09:29:15.569Z,14.63
2019-04-11T09:31:36.264Z,14.75
2019-04-11T09:33:58.047Z,14.65
2019-04-11T09:36:19.771Z,15.95
2019-04-11T09:38:26.422Z,14.98
2019-04-11T09:40:44.341Z,15.95
2019-04-11T09:42:49.880Z,15.03
2019-04-11T09:44:55.347Z,15.48
2019-04-11T09:47:17.830Z,15.38
2019-04-11T09:49:29.632Z,15.00
2019-04-11T09:51:42.158Z,15.48
2019-04-11T09:53:50.798Z,16.97
2019-04-11T09:55:59.379Z,15.30
2019-04-11T09:58:03.610Z,14.93
2019-04-11T10:00:10.222Z,15.05
2019-04-11T10:02:31.150Z,15.30
2019-04-11T10:04:36.636Z,16.40
2019-04-11T10:06:42.177Z,16.37
2019-04-11T10:08:47.553Z,15.90
2019-04-11T10:11:10.150Z,15.35
2019-04-11T10:13:24.999Z,16.05
2019-04-11T10:15:31.512Z,16.07
2019-04-11T10:17:40.249Z,15.75
2019-04-11T10:19:44.376Z,15.83
2019-04-11T10:22:02.800Z,16.40
2019-04-11T10:24:20.547Z,15.03
2019-04-11T10:26:23.536Z,15.30
2019-04-11T10:28:41.776Z,15.90
2019-04-11T10:30:50.387Z,17.25
2019-04-11T10:33:12.976Z,15.63
2019-04-11T10:35:34.935Z,16.37
2019-04-11T10:37:44.242Z,16.42
2019-04-11T10:40:11.616Z,16.75
2019-04-11T10:42:18.040Z,16.42
2019-04-11T10:44:23.648Z,16.37
2019-04-11T10:46:35.500Z,16.62
2019-04-11T10:48:57.529Z,16.52
2019-04-11T10:51:08.834Z,18.17
2019-04-11T10:53:13.070Z,18.20
2019-04-11T10:55:19.746Z,17.25
2019-04-11T10:57:27.951Z,17.57
2019-04-11T10:59:39.363Z,16.50
2019-04-11T11:02:04.522Z,16.48
2019-04-11T11:04:13.713Z,16.32
2019-04-11T11:06:19.766Z,15.43
2019-04-11T11:08:40.049Z,18.15
2019-04-11T11:10:44.042Z,21.87
2019-04-11T11:13:07.723Z,15.88
2019-04-11T11:15:13.696Z,21.55
2019-04-11T11:17:55.898Z,15.23
2019-04-11T11:20:08.917Z,16.35
2019-04-11T11:22:03.500Z,16.67
2019-04-11T11:24:24.480Z,15.85
2019-04-11T11:26:29.419Z,16.25
2019-04-11T11:28:38.701Z,16.12
2019-04-11T11:31:03.250Z,16.62
2019-04-11T11:33:09.982Z,15.38
2019-04-11T11:35:15.612Z,15.32
2019-04-11T11:37:37.761Z,15.53
2019-04-11T11:40:04.452Z,16.30
2019-04-11T11:42:12.284Z,15.70
2019-04-11T11:44:16.498Z,14.80
2019-04-11T11:46:31.711Z,15.32
2019-04-11T11:48:50.721Z,14.58
2019-04-11T11:50:52.860Z,15.43
2019-04-11T11:53:13.154Z,15.72
2019-04-11T11:55:21.910Z,16.02
2019-04-11T11:57:27.496Z,15.68
2019-04-11T11:59:34.389Z,15.20
2019-04-11T12:01:43.229Z,14.45
2019-04-11T12:03:47.099Z,15.18
2019-04-11T12:05:56.634Z,15.28
2019-04-11T12:08:10.841Z,14.60
2019-04-11T12:10:19.575Z,14.38
2019-04-11T12:12:25.211Z,14.80
2019-04-11T12:14:37.245Z,15.15
2019-04-11T12:17:00.371Z,14.73
2019-04-11T12:19:08.822Z,14.83
2019-04-11T12:21:18.566Z,13.45
2019-04-11T12:23:46.531Z,13.62
2019-04-11T12:25:43.892Z,13.55
2019-04-11T12:27:50.075Z,14.70
2019-04-11T12:30:13.784Z,14.63
2019-04-11T12:34:46.992Z,13.72
2019-04-11T12:37:07.259Z,14.58
2019-04-11T12:39:46.392Z,13.83
2019-04-11T12:42:04.375Z,15.85
2019-04-11T12:44:09.824Z,14.18
2019-04-11T12:46:19.353Z,13.72
2019-04-11T12:48:25.086Z,13.50
2019-04-11T12:50:46.941Z,14.50
2019-04-11T12:52:54.529Z,14.80
2019-04-11T12:54:59.976Z,13.48
2019-04-11T12:57:05.438Z,15.00
2019-04-11T12:59:09.506Z,14.18
2019-04-11T13:01:24.838Z,13.03
2019-04-11T13:03:42.204Z,13.10
2019-04-11T13:05:47.671Z,13.08
2019-04-11T13:07:53.111Z,14.35
2019-04-11T13:09:59.210Z,13.45
2019-04-11T13:12:07.700Z,13.15
2019-04-11T13:14:32.683Z,13.08
2019-04-11T13:16:38.034Z,12.68
2019-04-11T13:18:46.313Z,13.15
2019-04-11T13:21:06.889Z,12.90
2019-04-11T13:23:28.968Z,13.03
2019-04-11T13:25:34.464Z,13.75
2019-04-11T13:27:39.907Z,18.27
2019-04-11T13:29:45.391Z,14.43
2019-04-11T13:31:54.298Z,14.90
2019-04-11T13:33:59.769Z,12.45
2019-04-11T13:36:21.778Z,13.20
2019-04-11T13:38:27.641Z,13.38
2019-04-11T13:40:42.276Z,13.88
2019-04-11T13:42:50.593Z,12.90
2019-04-11T13:44:54.578Z,13.28
2019-04-11T13:47:06.096Z,11.93
2019-04-11T13:49:26.960Z,12.03
2019-04-11T13:51:32.482Z,11.85
2019-04-11T13:53:50.228Z,11.48
2019-04-11T13:55:54.096Z,11.80
2019-04-11T13:58:24.354Z,11.78
2019-04-11T14:00:39.075Z,11.55
2019-04-11T14:02:51.289Z,12.33
2019-04-11T14:04:54.611Z,11.63
2019-04-11T14:06:58.879Z,13.53
2019-04-11T14:09:10.718Z,12.80
2019-04-11T14:11:19.493Z,12.35
2019-04-11T14:13:44.320Z,12.00
2019-04-11T14:15:49.780Z,12.00
2019-04-11T14:18:01.205Z,11.75
2019-04-11T14:20:29.592Z,13.10
2019-04-11T14:22:31.632Z,13.32
2019-04-11T14:24:37.077Z,11.65
2019-04-11T14:26:51.867Z,11.65
2019-04-11T14:28:56.722Z,12.37
2019-04-11T14:31:14.385Z,12.40
2019-04-11T14:33:18.291Z,12.07
2019-04-11T14:35:36.028Z,12.43
2019-04-11T14:37:41.475Z,12.15
2019-04-11T14:40:01.840Z,11.12
2019-04-11T14:42:07.387Z,11.28
2019-04-11T14:44:11.318Z,11.18
2019-04-11T14:46:19.872Z,11.18
2019-04-11T14:48:40.077Z,11.25
2019-04-11T14:50:51.163Z,12.18
2019-04-11T14:53:16.723Z,11.78
2019-04-11T14:55:20.079Z,11.93
2019-04-11T14:57:25.560Z,11.40
2019-04-11T14:59:31.024Z,11.97
2019-04-11T15:01:36.707Z,11.65
2019-04-11T15:03:58.781Z,10.85
2019-04-11T15:06:04.231Z,11.10
2019-04-11T15:08:09.793Z,11.60
2019-04-11T15:10:21.285Z,11.40
2019-04-11T15:12:36.173Z,10.82
2019-04-11T15:14:47.807Z,11.22
2019-04-11T15:16:51.907Z,11.10
2019-04-11T15:18:57.479Z,11.18
2019-04-11T15:21:15.193Z,10.65
2019-04-11T15:23:20.637Z,10.63
2019-04-11T15:25:29.131Z,10.35
2019-04-11T15:27:50.725Z,11.28
2019-04-11T15:29:56.188Z,11.88
2019-04-11T15:32:02.138Z,11.08
2019-04-11T15:34:10.650Z,11.00
2019-04-11T15:36:16.092Z,11.53
2019-04-11T15:38:33.675Z,11.40
2019-04-11T15:40:37.543Z,11.75
2019-04-11T15:42:58.099Z,12.03
2019-04-11T15:45:09.379Z,11.88
2019-04-11T15:47:23.448Z,11.75
2019-04-11T15:49:46.506Z,14.18
2019-04-11T15:51:51.601Z,11.50
2019-04-11T15:53:57.157Z,11.90
2019-04-11T15:56:19.006Z,11.83
2019-04-11T15:58:24.469Z,11.10
2019-04-11T16:00:35.914Z,10.58
2019-04-11T16:02:44.212Z,10.98
2019-04-11T16:04:49.808Z,11.40
2019-04-11T16:07:13.376Z,11.50
2019-04-11T16:13:51.110Z,11.97
2019-04-11T16:16:06.582Z,15.18
2019-04-11T16:18:24.187Z,15.38
2019-04-11T16:20:28.115Z,11.60
2019-04-11T16:22:55.103Z,11.22
2019-04-11T16:25:01.986Z,11.05
2019-04-11T16:27:10.243Z,10.78
2019-04-11T16:29:18.398Z,11.08
2019-04-11T16:31:23.932Z,12.58
2019-04-11T16:33:35.927Z,13.58
2019-04-11T16:35:47.402Z,14.65
2019-04-11T16:37:53.464Z,14.58
2019-04-11T16:39:59.565Z,15.88
2019-04-11T16:42:04.992Z,16.23
2019-04-11T16:44:18.388Z,12.75
2019-04-11T16:46:24.813Z,15.15
2019-04-11T16:48:29.095Z,13.10
2019-04-11T16:50:32.967Z,11.97
2019-04-11T16:52:38.570Z,11.40
2019-04-11T16:54:42.428Z,11.03
2019-04-11T16:56:46.442Z,11.63
2019-04-11T16:58:50.438Z,11.48
2019-04-11T17:00:54.474Z,12.33
2019-04-11T17:02:58.344Z,13.40
2019-04-11T17:05:02.285Z,12.65
2019-04-11T17:07:13.898Z,11.57
2019-04-11T17:09:26.772Z,11.12
2019-04-11T17:11:30.753Z,12.03
2019-04-11T17:13:34.701Z,12.23
2019-04-11T17:15:38.556Z,12.95
2019-04-11T17:17:44.207Z,12.73
2019-04-11T17:19:48.037Z,13.32
2019-04-11T17:21:51.973Z,12.25
2019-04-11T17:23:55.889Z,11.65
2019-04-11T17:25:59.764Z,12.03
2019-04-11T17:28:03.605Z,17.12
2019-04-11T17:30:07.864Z,15.98
2019-04-11T17:32:13.911Z,12.93
2019-04-11T17:34:17.248Z,14.47
2019-04-11T17:36:21.196Z,14.45
2019-04-11T17:38:25.175Z,16.75
2019-04-11T17:40:29.086Z,15.95
2019-04-11T17:42:32.956Z,16.82
2019-04-11T17:44:36.770Z,16.67
2019-04-11T17:46:41.964Z,14.90
2019-04-11T17:48:45.849Z,11.95
2019-04-11T17:50:49.732Z,11.15
2019-04-11T17:52:54.767Z,11.68
2019-04-11T17:55:00.274Z,11.90
2019-04-11T17:57:04.343Z,14.28
2019-04-11T17:59:08.186Z,16.07
2019-04-11T18:01:13.888Z,16.00
2019-04-11T18:03:17.788Z,15.85
2019-04-11T18:05:21.676Z,16.55
2019-04-11T18:07:25.606Z,15.90
2019-04-11T18:09:29.515Z,15.80
2019-04-11T18:11:33.445Z,13.78
2019-04-11T18:13:37.364Z,16.42
2019-04-11T18:15:41.224Z,24.63
2019-04-11T18:17:45.175Z,45.92
2019-04-11T18:19:49.155Z,19.05
2019-04-11T18:21:53.342Z,15.65
2019-04-11T18:23:57.243Z,15.13
2019-04-11T18:26:01.254Z,13.65
2019-04-11T18:28:05.310Z,13.80
2019-04-11T18:30:11.268Z,22.48
2019-04-11T18:32:15.238Z,19.52
2019-04-11T18:34:19.268Z,23.62
2019-04-11T18:36:23.245Z,28.17
2019-04-11T18:38:27.131Z,36.25
2019-04-11T18:40:31.113Z,27.85
2019-04-11T18:42:56.786Z,30.77
2019-04-11T18:44:59.185Z,15.32
2019-04-11T18:47:03.532Z,14.20
2019-04-11T18:49:07.872Z,12.75
2019-04-11T18:51:12.156Z,15.05
2019-04-11T18:53:18.895Z,14.33
2019-04-11T18:55:22.238Z,20.17
2019-04-11T18:57:26.207Z,71.62
2019-04-11T18:59:33.752Z,56.37
2019-04-11T19:01:39.119Z,41.68
2019-04-11T19:03:41.950Z,22.58
2019-04-11T19:05:46.190Z,27.32
2019-04-11T19:07:50.335Z,27.45
2019-04-11T19:09:54.283Z,17.80
2019-04-11T19:11:58.605Z,28.73
2019-04-11T19:14:02.484Z,30.92
2019-04-11T19:16:06.352Z,30.02
2019-04-11T19:18:10.264Z,22.02
2019-04-11T19:20:18.926Z,22.15
2019-04-11T19:22:34.543Z,15.43
2019-04-11T19:24:34.984Z,14.87
2019-04-11T19:26:31.837Z,18.20
2019-04-11T19:28:35.678Z,18.90
2019-04-11T19:30:42.265Z,22.42
2019-04-11T19:32:45.173Z,19.62
2019-04-11T19:34:49.042Z,17.07
2019-04-11T19:36:52.977Z,14.50
2019-04-11T19:38:56.848Z,12.98
2019-04-11T19:41:00.719Z,17.10
2019-04-11T19:43:04.662Z,14.87
2019-04-11T19:45:08.706Z,15.35
2019-04-11T19:47:12.980Z,15.60
2019-04-11T19:49:16.927Z,13.72
2019-04-11T19:51:21.092Z,13.85
2019-04-11T19:53:25.154Z,16.30
2019-04-11T19:55:48.835Z,16.37
2019-04-11T19:59:59.744Z,21.25
2019-04-11T20:02:04.299Z,31.20
2019-04-11T20:04:08.352Z,33.80
2019-04-11T20:06:13.426Z,21.35
2019-04-11T20:08:17.785Z,34.85
2019-04-11T20:10:21.741Z,19.48
2019-04-11T20:12:27.742Z,15.32
2019-04-11T20:14:34.823Z,16.90
2019-04-11T20:16:45.070Z,19.85
2019-04-11T20:18:51.406Z,22.27
2019-04-11T20:20:59.801Z,13.35
2019-04-11T20:23:04.002Z,24.72
2019-04-11T20:25:08.700Z,28.47
2019-04-11T20:27:12.542Z,78.65
2019-04-11T20:29:16.405Z,45.03
2019-04-11T20:31:20.714Z,22.70
2019-04-11T20:33:33.819Z,20.37
2019-04-11T20:35:35.173Z,18.55
2019-04-11T20:37:44.446Z,19.87
2019-04-11T20:39:47.297Z,15.95
2019-04-11T20:41:53.610Z,19.70
2019-04-11T20:43:58.533Z,23.27
2019-04-11T20:46:02.945Z,17.30
2019-04-11T20:48:06.830Z,15.20
2019-04-11T20:50:11.010Z,16.15
2019-04-11T20:52:15.027Z,15.23
2019-04-11T20:54:20.087Z,14.18
2019-04-11T20:56:24.694Z,14.70
2019-04-11T20:58:28.936Z,14.93
2019-04-11T21:00:33.119Z,14.07
2019-04-11T21:02:37.356Z,14.45
2019-04-11T21:04:42.648Z,14.80
2019-04-11T21:06:46.957Z,16.50
2019-04-11T21:08:51.028Z,15.50
2019-04-11T21:10:55.261Z,14.63
2019-04-11T21:12:59.260Z,14.87
2019-04-11T21:15:03.250Z,14.75
2019-04-11T21:17:07.622Z,14.95
2019-04-11T21:19:11.651Z,14.33
2019-04-11T21:21:18.029Z,14.13
2019-04-11T21:23:24.633Z,15.03
2019-04-11T21:25:28.450Z,14.18
2019-04-11T21:27:34.527Z,14.47
2019-04-11T21:29:38.584Z,14.35
2019-04-11T21:31:44.427Z,13.72
2019-04-11T21:33:48.497Z,15.35
2019-04-11T21:35:52.453Z,13.55
2019-04-11T21:37:57.933Z,14.78
2019-04-11T21:40:02.365Z,17.27
2019-04-11T21:42:06.735Z,15.63
2019-04-11T21:44:10.989Z,14.60
2019-04-11T21:46:15.216Z,14.65
2019-04-11T21:48:19.353Z,14.53
2019-04-11T21:50:23.373Z,16.12
2019-04-11T21:52:27.500Z,15.40
2019-04-11T21:54:31.497Z,15.38
2019-04-11T21:56:35.776Z,15.10
2019-04-11T21:58:40.003Z,14.47
2019-04-11T22:00:46.929Z,15.38
2019-04-11T22:02:51.969Z,14.50
2019-04-11T22:04:58.760Z,15.03
2019-04-11T22:07:02.855Z,15.00
2019-04-11T22:09:08.344Z,14.55
2019-04-11T22:11:12.202Z,14.85
2019-04-11T22:13:16.171Z,15.28
2019-04-11T22:15:20.160Z,15.40
2019-04-11T22:17:24.166Z,15.00
2019-04-11T22:19:28.586Z,14.43
2019-04-11T22:21:32.485Z,15.20
2019-04-11T22:23:48.142Z,15.65
2019-04-11T22:25:42.082Z,13.93
2019-04-11T22:27:46.337Z,13.80
2019-04-11T22:29:50.438Z,15.25
2019-04-11T22:31:55.953Z,15.88
2019-04-11T22:34:07.699Z,15.65
2019-04-11T22:36:11.703Z,17.02
2019-04-11T22:38:15.600Z,16.05
2019-04-11T22:40:19.515Z,15.72
2019-04-11T22:42:23.621Z,16.73
2019-04-11T22:44:27.836Z,15.83
2019-04-11T22:46:31.799Z,15.65
2019-04-11T22:48:36.784Z,14.63
2019-04-11T22:50:41.484Z,14.78
2019-04-11T22:52:45.612Z,15.72
2019-04-11T22:54:49.614Z,15.58
2019-04-11T22:56:53.832Z,16.00
2019-04-11T22:58:57.725Z,16.48
2019-04-11T23:01:01.938Z,16.80
2019-04-11T23:03:19.533Z,15.80
2019-04-11T23:05:23.516Z,14.93
2019-04-11T23:07:27.492Z,15.15
2019-04-11T23:09:31.462Z,14.95
2019-04-11T23:11:35.407Z,14.75
2019-04-11T23:13:39.467Z,16.25
2019-04-11T23:15:44.413Z,15.38
2019-04-11T23:17:48.612Z,15.23
2019-04-11T23:19:52.722Z,15.63
2019-04-11T23:21:56.943Z,15.23
2019-04-11T23:24:11.340Z,15.18
2019-04-11T23:26:06.851Z,14.53
2019-04-11T23:28:10.857Z,14.68
2019-04-11T23:30:15.946Z,14.90
2019-04-11T23:32:21.955Z,15.30
2019-04-11T23:34:25.973Z,16.37
2019-04-11T23:36:30.150Z,16.52
2019-04-11T23:38:34.089Z,16.30
2019-04-11T23:40:38.060Z,16.10
2019-04-11T23:42:42.028Z,14.15
2019-04-11T23:44:47.891Z,13.10
2019-04-11T23:46:52.706Z,12.45
2019-04-11T23:48:56.797Z,12.68
2019-04-11T23:51:00.694Z,12.78
2019-04-11T23:53:04.592Z,13.10
2019-04-11T23:55:08.960Z,13.32
2019-04-11T23:57:13.150Z,12.03
2019-04-11T23:59:17.073Z,12.90
